Terminal Aerodrome Forecast
Issued by NWS

Home | Current Version | Previous Version | Text Only | Print | Product List | Glossary On
Versions: 1 2 3 4 5 6 7 8 9 10 11 12 13 14 15 16 17 18 19
317
FTPA31 PHFO 240907 AAA
TAFHLI
TAF AMD
PHLI 240907Z 2409/2506 05011KT P6SM VCSH SCT025 SCT045
      TEMPO 2409/2411 BKN020=

USA.gov is the U.S. government's official web portal to all federal, state and local government web resources and services.